Strona główna
Zdjęcia satelitarne 15-dni prognozyKlimatMeteorologia morska Cyklony Błyskawica LotniskoFAQ Gazetka O
Pogoda : Europa Afryka Ameryka Północna Ameryka Południowa Azja Australia-Oceania Inny
Języki Kontakt

Poznań, Polska

Ławica

Szerokość geograficzna: 52-25N, Długość geograficzna: 016-50E, wysokość: 86 m


METAR: EPPO 211000Z 27006KT 230V300 CAVOK 19/06 Q1016
short-TAF: przestarzały (44245 godziny)
long-TAF: EPPO 210530Z 2106/2206 26006KT CAVOK TEMPO 2110/2118 SCT035CB

czas: 12:08 (10:08 UTC)

Aktualna obserwacja pogody

Raport powstał 8 minut temu, godzina 10:00 UTC  
Wiatr 06 kt od zachód, zmienny między południowy zachód i zachodnio-północny zachód
Temperatura 19°C
Wilgotność 43%
Ciśnienie 1016 hPa
Widzialność 10 km lub więcej
Brak chmur poniżej 1500 m i brak chmur cumulonimbus

Jednostka miary

Prognoza

Raport powstał 4 godziny i 32 minut temu, godzina 05:36 UTC  
Prognoza ważna od 21 godzina 06 UTC do 22 godzina 06 UTC
Wiatr 06 kt od zachód
Widzialność 10 km lub więcej
Brak chmur poniżej 1500 m i brak chmur cumulonimbus
Przejściowo
od 21 godzina 10 UTC do 21 godzina 18 UTC
Rozproszone chmury na wysokości 3500 ft , Cumulonimbus.
Informacje na tej stronie internetowej podlegają klauzuli o wyłączeniu odpowiedzialności
Pogoda : Europa Afryka Ameryka Północna Ameryka Południowa Azja Australia-Oceania Inny
Zdjęcia satelitarne 15-dni prognozyKlimatMeteorologia morska Cyklony Błyskawica LotniskoFAQ Języki Kontakt Gazetka O